sensor_id;sensor_type;location;lat;lon;timestamp;temperature;humidity
4699;DHT22;33708;49.466;11.176;2023-04-10T00:01:48;2.50;1.00
4699;DHT22;33708;49.466;11.176;2023-04-10T00:04:14;2.40;1.00
4699;DHT22;33708;49.466;11.176;2023-04-10T00:06:40;2.50;1.00
4699;DHT22;33708;49.466;11.176;2023-04-10T00:09:07;2.40;1.00
4699;DHT22;33708;49.466;11.176;2023-04-10T00:11:32;2.30;1.00
4699;DHT22;33708;49.466;11.176;2023-04-10T00:13:58;2.30;1.00
4699;DHT22;33708;49.466;11.176;2023-04-10T00:16:23;2.20;1.00
4699;DHT22;33708;49.466;11.176;2023-04-10T00:18:49;2.10;1.00
4699;DHT22;33708;49.466;11.176;2023-04-10T00:21:15;2.10;1.00
4699;DHT22;33708;49.466;11.176;2023-04-10T00:23:41;2.10;1.00
4699;DHT22;33708;49.466;11.176;2023-04-10T00:26:07;2.30;1.00
4699;DHT22;33708;49.466;11.176;2023-04-10T00:28:33;2.30;1.00
4699;DHT22;33708;49.466;11.176;2023-04-10T00:31:03;2.30;1.00
4699;DHT22;33708;49.466;11.176;2023-04-10T00:33:28;2.20;1.00
4699;DHT22;33708;49.466;11.176;2023-04-10T00:35:54;2.10;1.00
4699;DHT22;33708;49.466;11.176;2023-04-10T00:38:20;2.10;1.00
4699;DHT22;33708;49.466;11.176;2023-04-10T00:40:47;2.10;1.00
4699;DHT22;33708;49.466;11.176;2023-04-10T00:43:12;2.20;1.00
4699;DHT22;33708;49.466;11.176;2023-04-10T00:45:38;2.20;1.00
4699;DHT22;33708;49.466;11.176;2023-04-10T00:48:04;2.10;1.00
4699;DHT22;33708;49.466;11.176;2023-04-10T00:50:30;2.00;1.00
4699;DHT22;33708;49.466;11.176;2023-04-10T00:52:55;1.90;1.00
4699;DHT22;33708;49.466;11.176;2023-04-10T00:55:22;1.90;1.00
4699;DHT22;33708;49.466;11.176;2023-04-10T00:57:48;1.90;1.00
4699;DHT22;33708;49.466;11.176;2023-04-10T01:00:14;1.90;1.00
4699;DHT22;33708;49.466;11.176;2023-04-10T01:02:41;1.80;1.00
4699;DHT22;33708;49.466;11.176;2023-04-10T01:05:08;1.80;1.00
4699;DHT22;33708;49.466;11.176;2023-04-10T01:10:24;1.70;1.00
4699;DHT22;33708;49.466;11.176;2023-04-10T01:15:25;1.90;1.00
4699;DHT22;33708;49.466;11.176;2023-04-10T01:18:06;1.80;1.00
4699;DHT22;33708;49.466;11.176;2023-04-10T01:20:37;1.70;1.00
4699;DHT22;33708;49.466;11.176;2023-04-10T01:25:55;1.60;1.00
4699;DHT22;33708;49.466;11.176;2023-04-10T01:31:36;1.50;1.00
4699;DHT22;33708;49.466;11.176;2023-04-10T01:34:14;1.50;1.00
4699;DHT22;33708;49.466;11.176;2023-04-10T01:37:02;1.50;1.00
4699;DHT22;33708;49.466;11.176;2023-04-10T01:39:29;1.70;3.40
4699;DHT22;33708;49.466;11.176;2023-04-10T01:41:56;1.70;5.20
4699;DHT22;33708;49.466;11.176;2023-04-10T01:44:28;1.80;13.90
4699;DHT22;33708;49.466;11.176;2023-04-10T01:46:55;1.90;14.70
4699;DHT22;33708;49.466;11.176;2023-04-10T01:49:24;1.90;17.80
4699;DHT22;33708;49.466;11.176;2023-04-10T01:51:51;1.80;2.00
4699;DHT22;33708;49.466;11.176;2023-04-10T01:54:18;1.80;19.90
4699;DHT22;33708;49.466;11.176;2023-04-10T01:56:44;1.80;19.80
4699;DHT22;33708;49.466;11.176;2023-04-10T01:59:10;1.80;16.30
4699;DHT22;33708;49.466;11.176;2023-04-10T02:01:36;1.90;20.90
4699;DHT22;33708;49.466;11.176;2023-04-10T02:04:02;1.90;14.70
4699;DHT22;33708;49.466;11.176;2023-04-10T02:06:50;1.80;2.00
4699;DHT22;33708;49.466;11.176;2023-04-10T02:09:27;1.80;10.10
4699;DHT22;33708;49.466;11.176;2023-04-10T02:12:05;1.70;4.90
4699;DHT22;33708;49.466;11.176;2023-04-10T02:14:33;1.70;12.00
4699;DHT22;33708;49.466;11.176;2023-04-10T02:17:01;1.70;10.00
4699;DHT22;33708;49.466;11.176;2023-04-10T02:19:27;1.60;5.40
4699;DHT22;33708;49.466;11.176;2023-04-10T02:21:56;1.50;14.00
4699;DHT22;33708;49.466;11.176;2023-04-10T02:24:23;1.50;15.50
4699;DHT22;33708;49.466;11.176;2023-04-10T02:26:51;1.50;20.30
4699;DHT22;33708;49.466;11.176;2023-04-10T02:29:17;1.40;2.20
4699;DHT22;33708;49.466;11.176;2023-04-10T02:31:44;1.30;1.00
4699;DHT22;33708;49.466;11.176;2023-04-10T02:34:10;1.20;8.50
4699;DHT22;33708;49.466;11.176;2023-04-10T02:36:37;1.20;8.30
4699;DHT22;33708;49.466;11.176;2023-04-10T02:39:03;1.30;9.70
4699;DHT22;33708;49.466;11.176;2023-04-10T02:41:29;1.20;8.90
4699;DHT22;33708;49.466;11.176;2023-04-10T02:43:55;1.30;29.20
4699;DHT22;33708;49.466;11.176;2023-04-10T02:46:21;1.30;30.50
4699;DHT22;33708;49.466;11.176;2023-04-10T02:48:46;1.20;21.40
4699;DHT22;33708;49.466;11.176;2023-04-10T02:51:13;1.30;24.20
4699;DHT22;33708;49.466;11.176;2023-04-10T02:53:38;1.30;39.00
4699;DHT22;33708;49.466;11.176;2023-04-10T02:56:04;1.30;25.30
4699;DHT22;33708;49.466;11.176;2023-04-10T02:58:33;1.30;23.20
4699;DHT22;33708;49.466;11.176;2023-04-10T03:01:00;1.30;20.30
4699;DHT22;33708;49.466;11.176;2023-04-10T03:03:26;1.30;33.10
4699;DHT22;33708;49.466;11.176;2023-04-10T03:05:52;1.30;16.10
4699;DHT22;33708;49.466;11.176;2023-04-10T03:08:18;1.20;14.20
4699;DHT22;33708;49.466;11.176;2023-04-10T03:10:44;1.20;7.00
4699;DHT22;33708;49.466;11.176;2023-04-10T03:13:10;1.10;1.00
4699;DHT22;33708;49.466;11.176;2023-04-10T03:15:36;1.00;3.40
4699;DHT22;33708;49.466;11.176;2023-04-10T03:18:03;1.20;36.20
4699;DHT22;33708;49.466;11.176;2023-04-10T03:20:30;1.20;44.40
4699;DHT22;33708;49.466;11.176;2023-04-10T03:22:57;1.20;54.90
4699;DHT22;33708;49.466;11.176;2023-04-10T03:25:23;1.20;37.20
4699;DHT22;33708;49.466;11.176;2023-04-10T03:27:49;1.30;41.30
4699;DHT22;33708;49.466;11.176;2023-04-10T03:30:14;1.20;30.90
4699;DHT22;33708;49.466;11.176;2023-04-10T03:32:41;1.00;20.40
4699;DHT22;33708;49.466;11.176;2023-04-10T03:35:08;1.00;9.90
4699;DHT22;33708;49.466;11.176;2023-04-10T03:37:34;0.90;4.00
4699;DHT22;33708;49.466;11.176;2023-04-10T03:39:59;0.90;13.00
4699;DHT22;33708;49.466;11.176;2023-04-10T03:42:25;0.90;9.60
4699;DHT22;33708;49.466;11.176;2023-04-10T03:44:51;1.10;11.60
4699;DHT22;33708;49.466;11.176;2023-04-10T03:47:17;1.10;1.00
4699;DHT22;33708;49.466;11.176;2023-04-10T03:49:42;0.90;1.00
4699;DHT22;33708;49.466;11.176;2023-04-10T03:52:08;0.60;1.00
4699;DHT22;33708;49.466;11.176;2023-04-10T03:54:34;0.80;5.30
4699;DHT22;33708;49.466;11.176;2023-04-10T03:56:59;0.70;4.30
4699;DHT22;33708;49.466;11.176;2023-04-10T03:59:26;0.70;13.30
4699;DHT22;33708;49.466;11.176;2023-04-10T04:01:51;0.60;17.80
4699;DHT22;33708;49.466;11.176;2023-04-10T04:04:18;0.70;27.10
4699;DHT22;33708;49.466;11.176;2023-04-10T04:06:43;0.80;46.50
4699;DHT22;33708;49.466;11.176;2023-04-10T04:09:09;0.80;44.60
4699;DHT22;33708;49.466;11.176;2023-04-10T04:11:35;0.80;59.10
4699;DHT22;33708;49.466;11.176;2023-04-10T04:14:00;0.70;51.50
4699;DHT22;33708;49.466;11.176;2023-04-10T04:16:26;0.80;69.90
4699;DHT22;33708;49.466;11.176;2023-04-10T04:18:51;0.80;52.00
4699;DHT22;33708;49.466;11.176;2023-04-10T04:21:17;0.80;41.80
4699;DHT22;33708;49.466;11.176;2023-04-10T04:23:43;0.90;36.70
4699;DHT22;33708;49.466;11.176;2023-04-10T04:26:08;1.00;21.00
4699;DHT22;33708;49.466;11.176;2023-04-10T04:28:34;1.00;19.80
4699;DHT22;33708;49.466;11.176;2023-04-10T04:31:00;0.90;1.00
4699;DHT22;33708;49.466;11.176;2023-04-10T04:33:26;0.80;1.00
4699;DHT22;33708;49.466;11.176;2023-04-10T04:35:52;0.90;1.00
4699;DHT22;33708;49.466;11.176;2023-04-10T04:38:17;0.90;1.00
4699;DHT22;33708;49.466;11.176;2023-04-10T04:40:44;0.90;1.00
4699;DHT22;33708;49.466;11.176;2023-04-10T04:43:10;0.90;1.00
4699;DHT22;33708;49.466;11.176;2023-04-10T04:45:36;1.00;9.60
4699;DHT22;33708;49.466;11.176;2023-04-10T04:48:01;1.10;1.00
4699;DHT22;33708;49.466;11.176;2023-04-10T04:50:27;1.30;1.00
4699;DHT22;33708;49.466;11.176;2023-04-10T04:52:53;1.40;1.00
4699;DHT22;33708;49.466;11.176;2023-04-10T04:55:18;1.50;1.00
4699;DHT22;33708;49.466;11.176;2023-04-10T04:57:44;1.40;1.00
4699;DHT22;33708;49.466;11.176;2023-04-10T05:00:10;1.20;1.00
4699;DHT22;33708;49.466;11.176;2023-04-10T05:02:35;1.30;1.00
4699;DHT22;33708;49.466;11.176;2023-04-10T05:05:01;2.00;1.00
4699;DHT22;33708;49.466;11.176;2023-04-10T05:07:26;3.60;1.00
4699;DHT22;33708;49.466;11.176;2023-04-10T05:09:52;4.60;1.00
4699;DHT22;33708;49.466;11.176;2023-04-10T05:12:18;5.60;1.00
4699;DHT22;33708;49.466;11.176;2023-04-10T05:14:44;6.00;1.00
4699;DHT22;33708;49.466;11.176;2023-04-10T05:17:10;6.30;1.00
4699;DHT22;33708;49.466;11.176;2023-04-10T05:19:36;6.90;1.00
4699;DHT22;33708;49.466;11.176;2023-04-10T05:22:01;7.60;1.00
4699;DHT22;33708;49.466;11.176;2023-04-10T05:24:27;8.10;1.00
4699;DHT22;33708;49.466;11.176;2023-04-10T05:26:52;8.70;1.00
4699;DHT22;33708;49.466;11.176;2023-04-10T05:29:18;10.10;1.00
4699;DHT22;33708;49.466;11.176;2023-04-10T05:31:44;10.50;1.00
4699;DHT22;33708;49.466;11.176;2023-04-10T05:34:09;11.80;1.00
4699;DHT22;33708;49.466;11.176;2023-04-10T05:36:36;12.20;1.00
4699;DHT22;33708;49.466;11.176;2023-04-10T05:39:01;12.70;1.00
4699;DHT22;33708;49.466;11.176;2023-04-10T05:41:27;13.50;1.00
4699;DHT22;33708;49.466;11.176;2023-04-10T05:43:52;13.60;1.00
4699;DHT22;33708;49.466;11.176;2023-04-10T05:46:18;13.80;1.00
4699;DHT22;33708;49.466;11.176;2023-04-10T05:48:44;14.50;1.00
4699;DHT22;33708;49.466;11.176;2023-04-10T05:51:09;14.70;1.00
4699;DHT22;33708;49.466;11.176;2023-04-10T05:53:35;15.10;1.00
4699;DHT22;33708;49.466;11.176;2023-04-10T05:56:01;14.10;1.00
4699;DHT22;33708;49.466;11.176;2023-04-10T05:58:27;14.40;1.00
4699;DHT22;33708;49.466;11.176;2023-04-10T06:00:53;14.60;1.00
4699;DHT22;33708;49.466;11.176;2023-04-10T06:03:20;13.80;1.00
4699;DHT22;33708;49.466;11.176;2023-04-10T06:05:46;13.40;1.00
4699;DHT22;33708;49.466;11.176;2023-04-10T06:08:11;12.50;1.00
4699;DHT22;33708;49.466;11.176;2023-04-10T06:10:37;14.10;1.00
4699;DHT22;33708;49.466;11.176;2023-04-10T06:13:03;14.00;1.00
4699;DHT22;33708;49.466;11.176;2023-04-10T06:15:28;12.80;1.00
4699;DHT22;33708;49.466;11.176;2023-04-10T06:17:54;13.00;1.00
4699;DHT22;33708;49.466;11.176;2023-04-10T06:20:20;13.20;1.00
4699;DHT22;33708;49.466;11.176;2023-04-10T06:22:46;12.00;1.00
4699;DHT22;33708;49.466;11.176;2023-04-10T06:25:11;13.20;1.00
4699;DHT22;33708;49.466;11.176;2023-04-10T06:27:37;12.90;1.00
4699;DHT22;33708;49.466;11.176;2023-04-10T06:30:03;13.70;1.00
4699;DHT22;33708;49.466;11.176;2023-04-10T06:32:29;13.80;1.00
4699;DHT22;33708;49.466;11.176;2023-04-10T06:34:55;15.40;1.00
4699;DHT22;33708;49.466;11.176;2023-04-10T06:37:31;16.40;1.00
4699;DHT22;33708;49.466;11.176;2023-04-10T06:40:07;16.70;1.00
4699;DHT22;33708;49.466;11.176;2023-04-10T06:42:34;17.70;1.00
4699;DHT22;33708;49.466;11.176;2023-04-10T06:45:00;18.00;1.00
4699;DHT22;33708;49.466;11.176;2023-04-10T06:47:26;16.40;1.00
4699;DHT22;33708;49.466;11.176;2023-04-10T06:49:52;18.50;1.00
4699;DHT22;33708;49.466;11.176;2023-04-10T06:52:19;20.70;1.00
4699;DHT22;33708;49.466;11.176;2023-04-10T06:54:45;20.20;1.00
4699;DHT22;33708;49.466;11.176;2023-04-10T06:57:10;21.10;1.00
4699;DHT22;33708;49.466;11.176;2023-04-10T06:59:36;21.80;1.00
4699;DHT22;33708;49.466;11.176;2023-04-10T07:02:02;22.00;1.00
4699;DHT22;33708;49.466;11.176;2023-04-10T07:04:28;19.60;1.00
4699;DHT22;33708;49.466;11.176;2023-04-10T07:06:55;20.30;1.00
4699;DHT22;33708;49.466;11.176;2023-04-10T07:09:20;21.50;1.00
4699;DHT22;33708;49.466;11.176;2023-04-10T07:11:46;21.70;1.00
4699;DHT22;33708;49.466;11.176;2023-04-10T07:14:11;22.70;1.00
4699;DHT22;33708;49.466;11.176;2023-04-10T07:16:37;23.40;1.00
4699;DHT22;33708;49.466;11.176;2023-04-10T07:19:03;23.30;1.00
4699;DHT22;33708;49.466;11.176;2023-04-10T07:21:28;22.90;1.00
4699;DHT22;33708;49.466;11.176;2023-04-10T07:23:54;21.80;1.00
4699;DHT22;33708;49.466;11.176;2023-04-10T07:26:20;23.90;1.00
4699;DHT22;33708;49.466;11.176;2023-04-10T07:28:45;23.00;1.00
4699;DHT22;33708;49.466;11.176;2023-04-10T07:31:11;22.60;1.00
4699;DHT22;33708;49.466;11.176;2023-04-10T07:33:38;22.90;1.00
4699;DHT22;33708;49.466;11.176;2023-04-10T07:36:04;23.60;1.00
4699;DHT22;33708;49.466;11.176;2023-04-10T07:38:31;22.20;1.00
4699;DHT22;33708;49.466;11.176;2023-04-10T07:40:57;23.20;1.00
4699;DHT22;33708;49.466;11.176;2023-04-10T07:43:23;22.30;1.00
4699;DHT22;33708;49.466;11.176;2023-04-10T07:45:49;21.70;1.00
4699;DHT22;33708;49.466;11.176;2023-04-10T07:48:14;21.60;1.00
4699;DHT22;33708;49.466;11.176;2023-04-10T07:50:40;21.80;1.00
4699;DHT22;33708;49.466;11.176;2023-04-10T07:53:06;21.60;1.00
4699;DHT22;33708;49.466;11.176;2023-04-10T07:55:38;23.00;1.00
4699;DHT22;33708;49.466;11.176;2023-04-10T07:58:04;22.90;1.00
4699;DHT22;33708;49.466;11.176;2023-04-10T08:00:31;21.50;1.00
4699;DHT22;33708;49.466;11.176;2023-04-10T08:02:56;21.60;1.00
4699;DHT22;33708;49.466;11.176;2023-04-10T08:05:22;22.70;1.00
4699;DHT22;33708;49.466;11.176;2023-04-10T08:07:48;22.90;1.00
4699;DHT22;33708;49.466;11.176;2023-04-10T08:10:13;24.20;1.00
4699;DHT22;33708;49.466;11.176;2023-04-10T08:12:39;22.10;1.00
4699;DHT22;33708;49.466;11.176;2023-04-10T08:15:05;22.20;1.00
4699;DHT22;33708;49.466;11.176;2023-04-10T08:17:31;22.10;1.00
4699;DHT22;33708;49.466;11.176;2023-04-10T08:19:56;21.60;1.00
4699;DHT22;33708;49.466;11.176;2023-04-10T08:22:22;21.80;1.00
4699;DHT22;33708;49.466;11.176;2023-04-10T08:24:48;21.30;1.00
4699;DHT22;33708;49.466;11.176;2023-04-10T08:27:14;20.30;1.00
4699;DHT22;33708;49.466;11.176;2023-04-10T08:29:41;20.90;1.00
4699;DHT22;33708;49.466;11.176;2023-04-10T08:32:06;19.30;1.00
4699;DHT22;33708;49.466;11.176;2023-04-10T08:34:32;18.70;1.00
4699;DHT22;33708;49.466;11.176;2023-04-10T08:36:57;19.60;1.00
4699;DHT22;33708;49.466;11.176;2023-04-10T08:39:23;19.50;1.00
4699;DHT22;33708;49.466;11.176;2023-04-10T08:41:49;22.10;1.00
4699;DHT22;33708;49.466;11.176;2023-04-10T08:44:15;24.30;1.00
4699;DHT22;33708;49.466;11.176;2023-04-10T08:46:42;23.80;1.00
4699;DHT22;33708;49.466;11.176;2023-04-10T08:49:11;23.10;1.00
4699;DHT22;33708;49.466;11.176;2023-04-10T08:51:44;21.70;1.00
4699;DHT22;33708;49.466;11.176;2023-04-10T08:54:16;21.40;1.00
4699;DHT22;33708;49.466;11.176;2023-04-10T08:56:48;21.50;1.00
4699;DHT22;33708;49.466;11.176;2023-04-10T08:59:14;20.70;1.00
4699;DHT22;33708;49.466;11.176;2023-04-10T09:01:40;20.30;1.00
4699;DHT22;33708;49.466;11.176;2023-04-10T09:04:06;19.40;1.00
4699;DHT22;33708;49.466;11.176;2023-04-10T09:06:31;20.70;1.00
4699;DHT22;33708;49.466;11.176;2023-04-10T09:08:57;21.00;1.00
4699;DHT22;33708;49.466;11.176;2023-04-10T09:14:24;24.60;1.00
4699;DHT22;33708;49.466;11.176;2023-04-10T09:16:51;21.80;1.00
4699;DHT22;33708;49.466;11.176;2023-04-10T09:19:32;23.40;1.00
4699;DHT22;33708;49.466;11.176;2023-04-10T09:21:58;22.70;1.00
4699;DHT22;33708;49.466;11.176;2023-04-10T09:24:25;21.70;1.00
4699;DHT22;33708;49.466;11.176;2023-04-10T09:26:50;23.70;1.00
4699;DHT22;33708;49.466;11.176;2023-04-10T09:29:16;22.80;1.00
4699;DHT22;33708;49.466;11.176;2023-04-10T09:31:42;21.90;1.00
4699;DHT22;33708;49.466;11.176;2023-04-10T09:36:41;19.70;1.00
4699;DHT22;33708;49.466;11.176;2023-04-10T09:39:09;19.90;1.00
4699;DHT22;33708;49.466;11.176;2023-04-10T09:41:46;19.60;1.00
4699;DHT22;33708;49.466;11.176;2023-04-10T09:44:13;17.80;1.00
4699;DHT22;33708;49.466;11.176;2023-04-10T09:46:38;16.90;1.00
4699;DHT22;33708;49.466;11.176;2023-04-10T09:49:04;16.90;1.00
4699;DHT22;33708;49.466;11.176;2023-04-10T09:51:32;16.30;1.00
4699;DHT22;33708;49.466;11.176;2023-04-10T09:53:59;16.50;1.00
4699;DHT22;33708;49.466;11.176;2023-04-10T09:56:25;16.60;1.00
4699;DHT22;33708;49.466;11.176;2023-04-10T09:58:59;16.00;1.00
4699;DHT22;33708;49.466;11.176;2023-04-10T10:01:26;15.80;1.00
4699;DHT22;33708;49.466;11.176;2023-04-10T10:03:54;15.20;1.00
4699;DHT22;33708;49.466;11.176;2023-04-10T10:06:21;15.50;1.00
4699;DHT22;33708;49.466;11.176;2023-04-10T10:08:48;15.00;1.00
4699;DHT22;33708;49.466;11.176;2023-04-10T10:11:18;15.20;1.00
4699;DHT22;33708;49.466;11.176;2023-04-10T10:13:51;15.50;1.00
4699;DHT22;33708;49.466;11.176;2023-04-10T10:21:46;15.70;1.00
4699;DHT22;33708;49.466;11.176;2023-04-10T10:24:12;15.00;1.00
4699;DHT22;33708;49.466;11.176;2023-04-10T10:26:39;15.00;1.00
4699;DHT22;33708;49.466;11.176;2023-04-10T10:29:07;15.00;1.00
4699;DHT22;33708;49.466;11.176;2023-04-10T10:31:36;15.60;1.00
4699;DHT22;33708;49.466;11.176;2023-04-10T10:34:03;15.60;1.00
4699;DHT22;33708;49.466;11.176;2023-04-10T10:36:36;16.10;1.00
4699;DHT22;33708;49.466;11.176;2023-04-10T10:41:53;16.30;1.00
4699;DHT22;33708;49.466;11.176;2023-04-10T10:44:41;16.10;1.00
4699;DHT22;33708;49.466;11.176;2023-04-10T10:49:59;16.30;1.00
4699;DHT22;33708;49.466;11.176;2023-04-10T10:52:45;16.20;1.00
4699;DHT22;33708;49.466;11.176;2023-04-10T10:57:57;18.00;1.00
4699;DHT22;33708;49.466;11.176;2023-04-10T11:00:24;18.30;1.00
4699;DHT22;33708;49.466;11.176;2023-04-10T11:05:56;17.30;1.00
4699;DHT22;33708;49.466;11.176;2023-04-10T11:13:41;18.40;1.00
4699;DHT22;33708;49.466;11.176;2023-04-10T11:16:09;17.40;1.00
4699;DHT22;33708;49.466;11.176;2023-04-10T11:21:13;16.60;1.00
4699;DHT22;33708;49.466;11.176;2023-04-10T11:26:34;16.50;1.00
4699;DHT22;33708;49.466;11.176;2023-04-10T11:31:56;17.00;1.00
4699;DHT22;33708;49.466;11.176;2023-04-10T11:34:22;16.50;1.00
4699;DHT22;33708;49.466;11.176;2023-04-10T11:36:48;16.60;1.00
4699;DHT22;33708;49.466;11.176;2023-04-10T11:39:15;16.10;1.00
4699;DHT22;33708;49.466;11.176;2023-04-10T11:41:44;16.20;1.00
4699;DHT22;33708;49.466;11.176;2023-04-10T11:44:15;16.70;1.00
4699;DHT22;33708;49.466;11.176;2023-04-10T11:46:45;16.40;1.00
4699;DHT22;33708;49.466;11.176;2023-04-10T11:49:15;15.10;1.00
4699;DHT22;33708;49.466;11.176;2023-04-10T11:51:45;15.20;1.00
4699;DHT22;33708;49.466;11.176;2023-04-10T11:54:12;15.50;1.00
4699;DHT22;33708;49.466;11.176;2023-04-10T11:56:39;15.60;1.00
4699;DHT22;33708;49.466;11.176;2023-04-10T11:59:06;15.70;1.00
4699;DHT22;33708;49.466;11.176;2023-04-10T12:01:34;16.00;1.00
4699;DHT22;33708;49.466;11.176;2023-04-10T12:04:00;16.70;1.00
4699;DHT22;33708;49.466;11.176;2023-04-10T12:06:26;17.00;1.00
4699;DHT22;33708;49.466;11.176;2023-04-10T12:08:52;17.30;1.00
4699;DHT22;33708;49.466;11.176;2023-04-10T12:11:19;17.30;1.00
4699;DHT22;33708;49.466;11.176;2023-04-10T12:13:46;17.90;1.00
4699;DHT22;33708;49.466;11.176;2023-04-10T12:16:12;18.40;1.00
4699;DHT22;33708;49.466;11.176;2023-04-10T12:18:38;18.50;1.00
4699;DHT22;33708;49.466;11.176;2023-04-10T12:21:05;17.90;1.00
4699;DHT22;33708;49.466;11.176;2023-04-10T12:23:31;17.70;1.00
4699;DHT22;33708;49.466;11.176;2023-04-10T12:26:14;18.10;1.00
4699;DHT22;33708;49.466;11.176;2023-04-10T12:28:53;18.20;1.00
4699;DHT22;33708;49.466;11.176;2023-04-10T12:31:33;18.10;1.00
4699;DHT22;33708;49.466;11.176;2023-04-10T12:34:00;18.30;1.00
4699;DHT22;33708;49.466;11.176;2023-04-10T12:36:28;18.30;1.00
4699;DHT22;33708;49.466;11.176;2023-04-10T12:38:58;17.50;1.00
4699;DHT22;33708;49.466;11.176;2023-04-10T12:41:26;17.50;1.00
4699;DHT22;33708;49.466;11.176;2023-04-10T12:43:52;16.80;1.00
4699;DHT22;33708;49.466;11.176;2023-04-10T12:46:26;16.80;1.00
4699;DHT22;33708;49.466;11.176;2023-04-10T12:48:53;16.90;1.00
4699;DHT22;33708;49.466;11.176;2023-04-10T12:51:19;17.10;1.00
4699;DHT22;33708;49.466;11.176;2023-04-10T12:53:45;17.30;1.00
4699;DHT22;33708;49.466;11.176;2023-04-10T12:56:11;17.20;1.00
4699;DHT22;33708;49.466;11.176;2023-04-10T12:58:38;17.40;1.00
4699;DHT22;33708;49.466;11.176;2023-04-10T13:01:06;17.30;1.00
4699;DHT22;33708;49.466;11.176;2023-04-10T13:03:37;17.00;1.00
4699;DHT22;33708;49.466;11.176;2023-04-10T13:06:06;17.50;1.00
4699;DHT22;33708;49.466;11.176;2023-04-10T13:08:33;17.60;1.00
4699;DHT22;33708;49.466;11.176;2023-04-10T13:10:59;16.80;1.00
4699;DHT22;33708;49.466;11.176;2023-04-10T13:13:30;17.50;1.00
4699;DHT22;33708;49.466;11.176;2023-04-10T13:15:57;17.40;1.00
4699;DHT22;33708;49.466;11.176;2023-04-10T13:18:23;17.20;1.00
4699;DHT22;33708;49.466;11.176;2023-04-10T13:20:49;16.40;1.00
4699;DHT22;33708;49.466;11.176;2023-04-10T13:23:15;16.40;1.00
4699;DHT22;33708;49.466;11.176;2023-04-10T13:25:40;17.10;1.00
4699;DHT22;33708;49.466;11.176;2023-04-10T13:28:07;17.00;1.00
4699;DHT22;33708;49.466;11.176;2023-04-10T13:30:39;17.10;1.00
4699;DHT22;33708;49.466;11.176;2023-04-10T13:33:06;17.10;1.00
4699;DHT22;33708;49.466;11.176;2023-04-10T13:35:31;17.60;1.00
4699;DHT22;33708;49.466;11.176;2023-04-10T13:37:57;17.70;1.00
4699;DHT22;33708;49.466;11.176;2023-04-10T13:40:23;17.10;1.00
4699;DHT22;33708;49.466;11.176;2023-04-10T13:42:49;17.20;1.00
4699;DHT22;33708;49.466;11.176;2023-04-10T13:45:14;17.60;1.00
4699;DHT22;33708;49.466;11.176;2023-04-10T13:47:41;17.60;1.00
4699;DHT22;33708;49.466;11.176;2023-04-10T13:50:06;17.50;1.00
4699;DHT22;33708;49.466;11.176;2023-04-10T13:52:32;17.20;1.00
4699;DHT22;33708;49.466;11.176;2023-04-10T13:54:58;17.40;1.00
4699;DHT22;33708;49.466;11.176;2023-04-10T13:57:23;16.80;1.00
4699;DHT22;33708;49.466;11.176;2023-04-10T13:59:49;17.10;1.00
4699;DHT22;33708;49.466;11.176;2023-04-10T14:02:15;16.70;1.00
4699;DHT22;33708;49.466;11.176;2023-04-10T14:04:40;16.80;1.00
4699;DHT22;33708;49.466;11.176;2023-04-10T14:07:08;17.50;1.00
4699;DHT22;33708;49.466;11.176;2023-04-10T14:09:33;17.80;1.00
4699;DHT22;33708;49.466;11.176;2023-04-10T14:11:59;17.80;1.00
4699;DHT22;33708;49.466;11.176;2023-04-10T14:14:26;18.00;1.00
4699;DHT22;33708;49.466;11.176;2023-04-10T14:16:51;17.50;1.00
4699;DHT22;33708;49.466;11.176;2023-04-10T14:19:17;17.70;1.00
4699;DHT22;33708;49.466;11.176;2023-04-10T14:21:43;17.20;1.00
4699;DHT22;33708;49.466;11.176;2023-04-10T14:24:09;17.10;1.00
4699;DHT22;33708;49.466;11.176;2023-04-10T14:26:34;17.20;1.00
4699;DHT22;33708;49.466;11.176;2023-04-10T14:29:00;17.50;1.00
4699;DHT22;33708;49.466;11.176;2023-04-10T14:31:25;17.50;1.00
4699;DHT22;33708;49.466;11.176;2023-04-10T14:33:51;17.50;1.00
4699;DHT22;33708;49.466;11.176;2023-04-10T14:36:17;17.90;1.00
4699;DHT22;33708;49.466;11.176;2023-04-10T14:38:43;17.70;1.00
4699;DHT22;33708;49.466;11.176;2023-04-10T14:41:08;17.10;1.00
4699;DHT22;33708;49.466;11.176;2023-04-10T14:43:34;17.20;1.00
4699;DHT22;33708;49.466;11.176;2023-04-10T14:45:59;17.40;1.00
4699;DHT22;33708;49.466;11.176;2023-04-10T14:48:25;17.30;1.00
4699;DHT22;33708;49.466;11.176;2023-04-10T14:50:51;16.80;1.00
4699;DHT22;33708;49.466;11.176;2023-04-10T14:53:16;16.30;1.00
4699;DHT22;33708;49.466;11.176;2023-04-10T14:55:42;16.30;1.00
4699;DHT22;33708;49.466;11.176;2023-04-10T14:58:07;16.10;1.00
4699;DHT22;33708;49.466;11.176;2023-04-10T15:00:34;16.40;1.00
4699;DHT22;33708;49.466;11.176;2023-04-10T15:03:00;16.20;1.00
4699;DHT22;33708;49.466;11.176;2023-04-10T15:05:26;16.00;1.00
4699;DHT22;33708;49.466;11.176;2023-04-10T15:07:52;16.20;1.00
4699;DHT22;33708;49.466;11.176;2023-04-10T15:10:18;16.00;1.00
4699;DHT22;33708;49.466;11.176;2023-04-10T15:12:44;16.30;1.00
4699;DHT22;33708;49.466;11.176;2023-04-10T15:15:10;16.60;1.00
4699;DHT22;33708;49.466;11.176;2023-04-10T15:17:35;16.20;1.00
4699;DHT22;33708;49.466;11.176;2023-04-10T15:20:01;16.30;1.00
4699;DHT22;33708;49.466;11.176;2023-04-10T15:22:29;16.50;1.00
4699;DHT22;33708;49.466;11.176;2023-04-10T15:24:55;16.40;1.00
4699;DHT22;33708;49.466;11.176;2023-04-10T15:27:21;16.30;1.00
4699;DHT22;33708;49.466;11.176;2023-04-10T15:29:46;16.40;1.00
4699;DHT22;33708;49.466;11.176;2023-04-10T15:32:12;16.50;1.00
4699;DHT22;33708;49.466;11.176;2023-04-10T15:34:38;16.30;1.00
4699;DHT22;33708;49.466;11.176;2023-04-10T15:37:03;16.30;1.00
4699;DHT22;33708;49.466;11.176;2023-04-10T15:39:29;16.30;1.00
4699;DHT22;33708;49.466;11.176;2023-04-10T15:41:55;16.40;1.00
4699;DHT22;33708;49.466;11.176;2023-04-10T15:44:22;15.90;1.00
4699;DHT22;33708;49.466;11.176;2023-04-10T15:46:49;16.40;1.00
4699;DHT22;33708;49.466;11.176;2023-04-10T15:49:15;16.00;1.00
4699;DHT22;33708;49.466;11.176;2023-04-10T15:51:41;15.80;1.00
4699;DHT22;33708;49.466;11.176;2023-04-10T15:54:07;15.80;1.00
4699;DHT22;33708;49.466;11.176;2023-04-10T15:56:33;15.80;1.00
4699;DHT22;33708;49.466;11.176;2023-04-10T15:58:59;15.50;1.00
4699;DHT22;33708;49.466;11.176;2023-04-10T16:01:24;15.60;1.00
4699;DHT22;33708;49.466;11.176;2023-04-10T16:03:50;15.60;1.00
4699;DHT22;33708;49.466;11.176;2023-04-10T16:06:16;15.70;1.00
4699;DHT22;33708;49.466;11.176;2023-04-10T16:08:41;15.90;1.00
4699;DHT22;33708;49.466;11.176;2023-04-10T16:11:07;15.70;1.00
4699;DHT22;33708;49.466;11.176;2023-04-10T16:13:33;15.80;1.00
4699;DHT22;33708;49.466;11.176;2023-04-10T16:15:58;15.60;1.00
4699;DHT22;33708;49.466;11.176;2023-04-10T16:18:25;15.30;1.00
4699;DHT22;33708;49.466;11.176;2023-04-10T16:20:51;15.30;1.00
4699;DHT22;33708;49.466;11.176;2023-04-10T16:23:17;15.10;1.00
4699;DHT22;33708;49.466;11.176;2023-04-10T16:25:42;15.20;1.00
4699;DHT22;33708;49.466;11.176;2023-04-10T16:28:08;15.10;1.00
4699;DHT22;33708;49.466;11.176;2023-04-10T16:30:34;14.90;1.00
4699;DHT22;33708;49.466;11.176;2023-04-10T16:33:04;14.80;1.00
4699;DHT22;33708;49.466;11.176;2023-04-10T16:35:30;14.80;1.00